sensor_id;sensor_type;location;lat;lon;timestamp;pressure;altitude;pressure_sealevel;temperature;humidity
23164;BME280;31429;42.674;23.350;2022-07-22T00:00:51;94831.44;;;23.85;87.41
23164;BME280;31429;42.674;23.350;2022-07-22T00:01:52;94825.00;;;24.09;83.47
23164;BME280;31429;42.674;23.350;2022-07-22T00:02:52;94832.47;;;24.13;82.07
23164;BME280;31429;42.674;23.350;2022-07-22T00:03:53;94819.38;;;24.03;82.19
23164;BME280;31429;42.674;23.350;2022-07-22T00:04:54;94795.84;;;23.75;81.99
23164;BME280;31429;42.674;23.350;2022-07-22T00:05:55;94826.88;;;23.59;86.38
23164;BME280;31429;42.674;23.350;2022-07-22T00:06:55;94831.19;;;23.88;85.36
23164;BME280;31429;42.674;23.350;2022-07-22T00:07:57;94819.66;;;24.00;83.05
23164;BME280;31429;42.674;23.350;2022-07-22T00:08:58;94834.09;;;24.33;83.86
23164;BME280;31429;42.674;23.350;2022-07-22T00:09:59;94837.41;;;24.45;80.41
23164;BME280;31429;42.674;23.350;2022-07-22T00:11:00;94840.44;;;24.40;79.15
23164;BME280;31429;42.674;23.350;2022-07-22T00:12:00;94834.66;;;24.27;80.02
23164;BME280;31429;42.674;23.350;2022-07-22T00:13:01;94817.19;;;24.18;77.88
23164;BME280;31429;42.674;23.350;2022-07-22T00:14:02;94834.22;;;23.93;79.62
23164;BME280;31429;42.674;23.350;2022-07-22T00:15:04;94834.69;;;23.59;82.84
23164;BME280;31429;42.674;23.350;2022-07-22T00:16:06;94832.78;;;23.30;85.73
23164;BME280;31429;42.674;23.350;2022-07-22T00:17:07;94820.34;;;23.04;84.94
23164;BME280;31429;42.674;23.350;2022-07-22T00:18:07;94838.94;;;23.20;83.97
23164;BME280;31429;42.674;23.350;2022-07-22T00:19:08;94838.28;;;23.58;83.90
23164;BME280;31429;42.674;23.350;2022-07-22T00:20:09;94831.72;;;23.82;78.80
23164;BME280;31429;42.674;23.350;2022-07-22T00:21:10;94844.47;;;23.76;79.67
23164;BME280;31429;42.674;23.350;2022-07-22T00:22:11;94824.34;;;23.38;82.79
23164;BME280;31429;42.674;23.350;2022-07-22T00:23:13;94836.06;;;23.43;83.36
23164;BME280;31429;42.674;23.350;2022-07-22T00:24:13;94830.44;;;23.27;85.04
23164;BME280;31429;42.674;23.350;2022-07-22T00:25:14;94824.50;;;23.46;85.02
23164;BME280;31429;42.674;23.350;2022-07-22T00:26:15;94836.91;;;23.73;84.08
23164;BME280;31429;42.674;23.350;2022-07-22T00:27:16;94838.06;;;24.09;83.93
23164;BME280;31429;42.674;23.350;2022-07-22T00:28:16;94841.53;;;24.19;79.64
23164;BME280;31429;42.674;23.350;2022-07-22T00:29:17;94844.25;;;23.98;80.75
23164;BME280;31429;42.674;23.350;2022-07-22T00:30:18;94840.81;;;23.88;82.29
23164;BME280;31429;42.674;23.350;2022-07-22T00:31:18;94837.00;;;24.11;80.09
23164;BME280;31429;42.674;23.350;2022-07-22T00:32:19;94842.75;;;24.05;80.48
23164;BME280;31429;42.674;23.350;2022-07-22T00:33:20;94846.88;;;23.98;81.15
23164;BME280;31429;42.674;23.350;2022-07-22T00:34:21;94846.63;;;24.20;82.42
23164;BME280;31429;42.674;23.350;2022-07-22T00:35:21;94844.28;;;24.46;78.53
23164;BME280;31429;42.674;23.350;2022-07-22T00:36:23;94846.19;;;24.63;79.48
23164;BME280;31429;42.674;23.350;2022-07-22T00:37:24;94848.50;;;24.85;78.36
23164;BME280;31429;42.674;23.350;2022-07-22T00:38:26;94821.38;;;24.77;74.16
23164;BME280;31429;42.674;23.350;2022-07-22T00:39:26;94847.69;;;24.94;73.79
23164;BME280;31429;42.674;23.350;2022-07-22T00:40:27;94850.16;;;24.77;74.35
23164;BME280;31429;42.674;23.350;2022-07-22T00:41:28;94858.19;;;24.37;77.36
23164;BME280;31429;42.674;23.350;2022-07-22T00:42:29;94857.72;;;24.03;80.00
23164;BME280;31429;42.674;23.350;2022-07-22T00:43:51;94849.59;;;23.87;83.21
23164;BME280;31429;42.674;23.350;2022-07-22T00:44:52;94843.56;;;23.96;82.67
23164;BME280;31429;42.674;23.350;2022-07-22T00:45:53;94848.13;;;24.32;81.98
23164;BME280;31429;42.674;23.350;2022-07-22T00:46:53;94847.97;;;24.63;80.16
23164;BME280;31429;42.674;23.350;2022-07-22T00:47:54;94853.72;;;24.76;74.91
23164;BME280;31429;42.674;23.350;2022-07-22T00:48:56;94844.38;;;24.73;72.93
23164;BME280;31429;42.674;23.350;2022-07-22T00:49:56;94833.91;;;24.73;76.46
23164;BME280;31429;42.674;23.350;2022-07-22T00:50:57;94832.38;;;24.90;75.01
23164;BME280;31429;42.674;23.350;2022-07-22T00:51:58;94847.59;;;25.13;74.49
23164;BME280;31429;42.674;23.350;2022-07-22T00:52:59;94847.59;;;25.13;69.43
23164;BME280;31429;42.674;23.350;2022-07-22T00:54:03;94845.00;;;25.13;71.96
23164;BME280;31429;42.674;23.350;2022-07-22T00:55:05;94848.47;;;25.32;72.85
23164;BME280;31429;42.674;23.350;2022-07-22T00:56:06;94842.66;;;25.10;67.49
23164;BME280;31429;42.674;23.350;2022-07-22T00:57:07;94837.16;;;25.04;67.91
23164;BME280;31429;42.674;23.350;2022-07-22T00:58:08;94853.78;;;25.12;70.81
23164;BME280;31429;42.674;23.350;2022-07-22T00:59:10;94838.44;;;25.27;72.07
23164;BME280;31429;42.674;23.350;2022-07-22T01:00:14;94822.63;;;24.73;71.03
23164;BME280;31429;42.674;23.350;2022-07-22T01:01:16;94846.88;;;24.55;74.01
23164;BME280;31429;42.674;23.350;2022-07-22T01:02:17;94827.66;;;24.37;75.74
23164;BME280;31429;42.674;23.350;2022-07-22T01:03:17;94843.19;;;24.48;75.37
23164;BME280;31429;42.674;23.350;2022-07-22T01:04:18;94842.34;;;24.48;74.37
23164;BME280;31429;42.674;23.350;2022-07-22T01:05:19;94841.41;;;24.30;74.77
23164;BME280;31429;42.674;23.350;2022-07-22T01:06:20;94837.84;;;24.40;74.79
23164;BME280;31429;42.674;23.350;2022-07-22T01:07:20;94839.75;;;24.29;74.28
23164;BME280;31429;42.674;23.350;2022-07-22T01:08:21;94820.59;;;23.99;75.17
23164;BME280;31429;42.674;23.350;2022-07-22T01:09:24;94837.66;;;24.03;76.69
23164;BME280;31429;42.674;23.350;2022-07-22T01:10:25;94824.50;;;24.15;76.18
23164;BME280;31429;42.674;23.350;2022-07-22T01:11:26;94816.34;;;23.98;74.50
23164;BME280;31429;42.674;23.350;2022-07-22T01:12:27;94834.38;;;24.30;79.16
23164;BME280;31429;42.674;23.350;2022-07-22T01:13:27;94829.16;;;24.40;76.20
23164;BME280;31429;42.674;23.350;2022-07-22T01:14:28;94832.84;;;24.09;77.11
23164;BME280;31429;42.674;23.350;2022-07-22T01:15:29;94840.88;;;24.26;78.83
23164;BME280;31429;42.674;23.350;2022-07-22T01:16:30;94840.69;;;24.47;78.36
23164;BME280;31429;42.674;23.350;2022-07-22T01:17:32;94836.72;;;24.33;75.35
23164;BME280;31429;42.674;23.350;2022-07-22T01:18:32;94820.75;;;23.98;79.02
23164;BME280;31429;42.674;23.350;2022-07-22T01:19:35;94850.19;;;24.48;78.57
23164;BME280;31429;42.674;23.350;2022-07-22T01:20:37;94843.94;;;24.78;75.98
23164;BME280;31429;42.674;23.350;2022-07-22T01:21:38;94843.78;;;24.98;74.48
23164;BME280;31429;42.674;23.350;2022-07-22T01:22:39;94822.28;;;25.04;73.39
23164;BME280;31429;42.674;23.350;2022-07-22T01:23:40;94849.47;;;25.31;72.25
23164;BME280;31429;42.674;23.350;2022-07-22T01:24:41;94825.28;;;25.09;69.70
23164;BME280;31429;42.674;23.350;2022-07-22T01:25:42;94838.00;;;25.04;69.22
23164;BME280;31429;42.674;23.350;2022-07-22T01:26:42;94827.97;;;24.90;72.40
23164;BME280;31429;42.674;23.350;2022-07-22T01:27:43;94834.88;;;24.82;69.83
23164;BME280;31429;42.674;23.350;2022-07-22T01:28:44;94845.59;;;24.79;73.31
23164;BME280;31429;42.674;23.350;2022-07-22T01:29:45;94833.78;;;24.84;74.42
23164;BME280;31429;42.674;23.350;2022-07-22T01:30:45;94840.22;;;24.90;73.20
23164;BME280;31429;42.674;23.350;2022-07-22T01:31:46;94844.34;;;24.92;74.04
23164;BME280;31429;42.674;23.350;2022-07-22T01:32:47;94834.59;;;24.94;72.87
23164;BME280;31429;42.674;23.350;2022-07-22T01:33:48;94841.56;;;25.03;73.75
23164;BME280;31429;42.674;23.350;2022-07-22T01:34:49;94835.63;;;25.11;72.95
23164;BME280;31429;42.674;23.350;2022-07-22T01:35:51;94830.50;;;25.19;72.00
23164;BME280;31429;42.674;23.350;2022-07-22T01:36:52;94832.28;;;25.19;70.39
23164;BME280;31429;42.674;23.350;2022-07-22T01:37:53;94837.72;;;24.98;69.99
23164;BME280;31429;42.674;23.350;2022-07-22T01:38:54;94821.41;;;24.67;69.75
23164;BME280;31429;42.674;23.350;2022-07-22T01:39:54;94843.84;;;24.60;72.49
23164;BME280;31429;42.674;23.350;2022-07-22T01:40:55;94842.44;;;24.75;72.51
23164;BME280;31429;42.674;23.350;2022-07-22T01:41:56;94837.41;;;24.35;73.60
23164;BME280;31429;42.674;23.350;2022-07-22T01:42:56;94822.63;;;23.67;77.63
23164;BME280;31429;42.674;23.350;2022-07-22T01:43:57;94824.69;;;23.73;77.98
23164;BME280;31429;42.674;23.350;2022-07-22T01:44:58;94829.56;;;24.07;78.76
23164;BME280;31429;42.674;23.350;2022-07-22T01:45:59;94833.28;;;24.42;78.60
23164;BME280;31429;42.674;23.350;2022-07-22T01:46:59;94822.53;;;24.45;73.30
23164;BME280;31429;42.674;23.350;2022-07-22T01:48:01;94831.06;;;24.57;75.56
23164;BME280;31429;42.674;23.350;2022-07-22T01:49:02;94847.81;;;24.64;75.18
23164;BME280;31429;42.674;23.350;2022-07-22T01:50:04;94842.59;;;24.74;75.92
23164;BME280;31429;42.674;23.350;2022-07-22T01:51:06;94843.69;;;24.71;73.80
23164;BME280;31429;42.674;23.350;2022-07-22T01:52:07;94848.25;;;24.59;72.53
23164;BME280;31429;42.674;23.350;2022-07-22T01:53:08;94841.13;;;24.52;74.44
23164;BME280;31429;42.674;23.350;2022-07-22T01:54:09;94825.03;;;24.28;73.99
23164;BME280;31429;42.674;23.350;2022-07-22T01:55:10;94822.13;;;24.21;76.65
23164;BME280;31429;42.674;23.350;2022-07-22T01:56:12;94844.28;;;24.46;78.05
23164;BME280;31429;42.674;23.350;2022-07-22T01:57:13;94836.69;;;24.04;76.77
23164;BME280;31429;42.674;23.350;2022-07-22T01:58:14;94837.22;;;23.98;77.71
23164;BME280;31429;42.674;23.350;2022-07-22T01:59:15;94838.94;;;23.50;80.15
23164;BME280;31429;42.674;23.350;2022-07-22T02:00:16;94835.75;;;23.07;83.83
23164;BME280;31429;42.674;23.350;2022-07-22T02:01:17;94844.03;;;22.91;85.08
23164;BME280;31429;42.674;23.350;2022-07-22T02:02:18;94840.41;;;22.82;86.58
23164;BME280;31429;42.674;23.350;2022-07-22T02:03:18;94845.69;;;22.92;86.89
23164;BME280;31429;42.674;23.350;2022-07-22T02:04:19;94845.38;;;22.85;86.55
23164;BME280;31429;42.674;23.350;2022-07-22T02:05:20;94840.94;;;22.76;86.91
23164;BME280;31429;42.674;23.350;2022-07-22T02:06:22;94852.75;;;23.01;85.85
23164;BME280;31429;42.674;23.350;2022-07-22T02:07:22;94807.69;;;22.99;84.64
23164;BME280;31429;42.674;23.350;2022-07-22T02:08:25;94833.81;;;23.39;84.04
23164;BME280;31429;42.674;23.350;2022-07-22T02:09:25;94835.13;;;23.73;84.08
23164;BME280;31429;42.674;23.350;2022-07-22T02:10:26;94844.44;;;23.57;79.92
23164;BME280;31429;42.674;23.350;2022-07-22T02:11:27;94827.78;;;23.08;82.98
23164;BME280;31429;42.674;23.350;2022-07-22T02:12:27;94836.63;;;22.86;84.65
23164;BME280;31429;42.674;23.350;2022-07-22T02:13:28;94855.44;;;22.69;86.48
23164;BME280;31429;42.674;23.350;2022-07-22T02:14:29;94854.72;;;22.47;88.13
23164;BME280;31429;42.674;23.350;2022-07-22T02:15:30;94854.06;;;22.33;88.89
23164;BME280;31429;42.674;23.350;2022-07-22T02:16:31;94859.91;;;21.94;94.91
23164;BME280;31429;42.674;23.350;2022-07-22T02:17:32;94861.56;;;21.84;96.25
23164;BME280;31429;42.674;23.350;2022-07-22T02:18:33;94862.84;;;22.01;95.00
23164;BME280;31429;42.674;23.350;2022-07-22T02:19:33;94861.72;;;22.14;93.43
23164;BME280;31429;42.674;23.350;2022-07-22T02:20:34;94864.75;;;21.99;92.80
23164;BME280;31429;42.674;23.350;2022-07-22T02:21:36;94864.03;;;21.97;94.23
23164;BME280;31429;42.674;23.350;2022-07-22T02:22:38;94866.31;;;21.90;95.33
23164;BME280;31429;42.674;23.350;2022-07-22T02:23:38;94868.81;;;22.23;93.72
23164;BME280;31429;42.674;23.350;2022-07-22T02:24:39;94868.09;;;22.74;94.86
23164;BME280;31429;42.674;23.350;2022-07-22T02:25:41;94864.09;;;23.21;90.92
23164;BME280;31429;42.674;23.350;2022-07-22T02:26:42;94857.75;;;23.44;87.10
23164;BME280;31429;42.674;23.350;2022-07-22T02:27:42;94844.97;;;23.41;86.21
23164;BME280;31429;42.674;23.350;2022-07-22T02:28:43;94859.06;;;23.69;85.47
23164;BME280;31429;42.674;23.350;2022-07-22T02:29:45;94864.00;;;23.81;84.32
23164;BME280;31429;42.674;23.350;2022-07-22T02:30:46;94858.66;;;23.83;82.88
23164;BME280;31429;42.674;23.350;2022-07-22T02:31:47;94853.59;;;23.91;82.15
23164;BME280;31429;42.674;23.350;2022-07-22T02:32:47;94860.47;;;24.01;82.30
23164;BME280;31429;42.674;23.350;2022-07-22T02:33:48;94859.00;;;24.18;81.02
23164;BME280;31429;42.674;23.350;2022-07-22T02:34:49;94834.53;;;24.19;79.95
23164;BME280;31429;42.674;23.350;2022-07-22T02:35:49;94858.31;;;24.45;78.98
23164;BME280;31429;42.674;23.350;2022-07-22T02:36:52;94861.31;;;24.59;78.15
23164;BME280;31429;42.674;23.350;2022-07-22T02:37:54;94859.38;;;24.71;76.57
23164;BME280;31429;42.674;23.350;2022-07-22T02:38:54;94862.00;;;24.81;76.44
23164;BME280;31429;42.674;23.350;2022-07-22T02:39:55;94858.53;;;24.90;75.21
23164;BME280;31429;42.674;23.350;2022-07-22T02:40:56;94853.19;;;24.91;74.74
23164;BME280;31429;42.674;23.350;2022-07-22T02:41:56;94836.88;;;24.22;73.28
23164;BME280;31429;42.674;23.350;2022-07-22T02:42:57;94857.50;;;23.57;78.96
23164;BME280;31429;42.674;23.350;2022-07-22T02:43:58;94831.75;;;23.03;81.99
23164;BME280;31429;42.674;23.350;2022-07-22T02:44:59;94857.78;;;23.23;85.06
23164;BME280;31429;42.674;23.350;2022-07-22T02:45:59;94854.66;;;23.69;83.94
23164;BME280;31429;42.674;23.350;2022-07-22T02:47:00;94854.28;;;23.93;81.39
23164;BME280;31429;42.674;23.350;2022-07-22T02:48:01;94860.31;;;23.84;77.89
23164;BME280;31429;42.674;23.350;2022-07-22T02:49:02;94837.16;;;23.51;77.91
23164;BME280;31429;42.674;23.350;2022-07-22T02:50:05;94856.50;;;23.48;81.65
23164;BME280;31429;42.674;23.350;2022-07-22T02:51:05;94858.63;;;23.64;84.14
23164;BME280;31429;42.674;23.350;2022-07-22T02:52:07;94856.34;;;23.40;80.98
23164;BME280;31429;42.674;23.350;2022-07-22T02:53:08;94860.09;;;22.66;86.98
23164;BME280;31429;42.674;23.350;2022-07-22T02:54:09;94859.06;;;22.05;91.39
23164;BME280;31429;42.674;23.350;2022-07-22T02:55:10;94838.38;;;21.81;93.80
23164;BME280;31429;42.674;23.350;2022-07-22T02:56:10;94864.50;;;22.02;94.05
23164;BME280;31429;42.674;23.350;2022-07-22T02:57:11;94855.28;;;21.98;94.03
23164;BME280;31429;42.674;23.350;2022-07-22T02:58:12;94861.22;;;21.89;95.47
23164;BME280;31429;42.674;23.350;2022-07-22T02:59:12;94866.88;;;22.05;94.50
23164;BME280;31429;42.674;23.350;2022-07-22T03:00:14;94869.88;;;22.21;95.40
23164;BME280;31429;42.674;23.350;2022-07-22T03:01:14;94866.88;;;22.25;91.96
23164;BME280;31429;42.674;23.350;2022-07-22T03:02:15;94864.78;;;21.65;96.13
23164;BME280;31429;42.674;23.350;2022-07-22T03:03:16;94869.81;;;21.24;100.00
23164;BME280;31429;42.674;23.350;2022-07-22T03:04:17;94848.03;;;20.81;100.00
23164;BME280;31429;42.674;23.350;2022-07-22T03:05:17;94871.56;;;20.79;100.00
23164;BME280;31429;42.674;23.350;2022-07-22T03:06:19;94865.88;;;20.63;100.00
23164;BME280;31429;42.674;23.350;2022-07-22T03:07:22;94874.75;;;20.72;100.00
23164;BME280;31429;42.674;23.350;2022-07-22T03:08:23;94867.88;;;20.71;100.00
23164;BME280;31429;42.674;23.350;2022-07-22T03:09:24;94867.50;;;20.64;100.00
23164;BME280;31429;42.674;23.350;2022-07-22T03:10:24;94862.41;;;20.51;100.00
23164;BME280;31429;42.674;23.350;2022-07-22T03:11:25;94858.28;;;20.49;100.00
23164;BME280;31429;42.674;23.350;2022-07-22T03:12:26;94862.00;;;20.34;100.00
23164;BME280;31429;42.674;23.350;2022-07-22T03:13:26;94863.78;;;20.21;100.00
23164;BME280;31429;42.674;23.350;2022-07-22T03:14:27;94863.66;;;20.11;100.00
23164;BME280;31429;42.674;23.350;2022-07-22T03:15:28;94856.97;;;19.96;100.00
23164;BME280;31429;42.674;23.350;2022-07-22T03:16:29;94861.63;;;19.80;100.00
23164;BME280;31429;42.674;23.350;2022-07-22T03:17:33;94855.34;;;19.71;100.00
23164;BME280;31429;42.674;23.350;2022-07-22T03:18:34;94864.78;;;19.72;100.00
23164;BME280;31429;42.674;23.350;2022-07-22T03:19:34;94868.34;;;19.59;100.00
23164;BME280;31429;42.674;23.350;2022-07-22T03:20:35;94863.84;;;19.49;100.00
23164;BME280;31429;42.674;23.350;2022-07-22T03:21:36;94874.41;;;19.46;100.00
23164;BME280;31429;42.674;23.350;2022-07-22T03:22:38;94838.75;;;19.25;100.00
23164;BME280;31429;42.674;23.350;2022-07-22T03:23:39;94852.53;;;19.25;100.00
23164;BME280;31429;42.674;23.350;2022-07-22T03:24:40;94855.78;;;19.16;100.00
23164;BME280;31429;42.674;23.350;2022-07-22T03:25:41;94871.66;;;19.12;100.00
23164;BME280;31429;42.674;23.350;2022-07-22T03:26:41;94863.88;;;19.12;100.00
23164;BME280;31429;42.674;23.350;2022-07-22T03:27:42;94871.44;;;19.02;100.00
23164;BME280;31429;42.674;23.350;2022-07-22T03:28:43;94855.50;;;18.96;100.00
23164;BME280;31429;42.674;23.350;2022-07-22T03:29:43;94856.53;;;18.93;100.00
23164;BME280;31429;42.674;23.350;2022-07-22T03:30:44;94865.88;;;18.96;100.00
23164;BME280;31429;42.674;23.350;2022-07-22T03:31:45;94865.03;;;18.95;100.00
23164;BME280;31429;42.674;23.350;2022-07-22T03:32:46;94830.13;;;18.75;100.00
23164;BME280;31429;42.674;23.350;2022-07-22T03:33:47;94865.53;;;18.87;100.00
23164;BME280;31429;42.674;23.350;2022-07-22T03:34:47;94861.09;;;18.89;100.00
23164;BME280;31429;42.674;23.350;2022-07-22T03:35:48;94848.88;;;18.91;100.00
23164;BME280;31429;42.674;23.350;2022-07-22T03:36:49;94874.88;;;19.03;100.00
23164;BME280;31429;42.674;23.350;2022-07-22T03:37:51;94872.06;;;19.06;100.00
23164;BME280;31429;42.674;23.350;2022-07-22T03:38:52;94869.81;;;19.01;100.00
23164;BME280;31429;42.674;23.350;2022-07-22T03:39:53;94874.25;;;18.99;100.00
23164;BME280;31429;42.674;23.350;2022-07-22T03:40:53;94869.38;;;18.94;100.00
23164;BME280;31429;42.674;23.350;2022-07-22T03:41:56;94863.38;;;18.94;100.00
23164;BME280;31429;42.674;23.350;2022-07-22T03:42:56;94881.59;;;19.05;100.00
23164;BME280;31429;42.674;23.350;2022-07-22T03:43:57;94874.88;;;19.15;100.00
23164;BME280;31429;42.674;23.350;2022-07-22T03:44:58;94857.03;;;19.11;100.00
23164;BME280;31429;42.674;23.350;2022-07-22T03:45:58;94859.19;;;19.17;100.00
23164;BME280;31429;42.674;23.350;2022-07-22T03:47:00;94878.88;;;19.32;100.00
23164;BME280;31429;42.674;23.350;2022-07-22T03:48:00;94883.09;;;19.33;100.00
23164;BME280;31429;42.674;23.350;2022-07-22T03:49:01;94883.00;;;19.34;100.00
23164;BME280;31429;42.674;23.350;2022-07-22T03:50:02;94892.88;;;19.42;100.00
23164;BME280;31429;42.674;23.350;2022-07-22T03:51:03;94878.75;;;19.33;100.00
23164;BME280;31429;42.674;23.350;2022-07-22T03:52:04;94890.78;;;19.34;100.00
23164;BME280;31429;42.674;23.350;2022-07-22T03:53:06;94878.38;;;19.39;100.00
23164;BME280;31429;42.674;23.350;2022-07-22T03:54:07;94885.59;;;19.34;100.00
23164;BME280;31429;42.674;23.350;2022-07-22T03:55:08;94889.59;;;19.15;100.00
23164;BME280;31429;42.674;23.350;2022-07-22T03:56:09;94883.34;;;19.05;100.00
23164;BME280;31429;42.674;23.350;2022-07-22T03:57:10;94884.31;;;19.04;100.00
23164;BME280;31429;42.674;23.350;2022-07-22T03:58:10;94883.28;;;19.06;100.00
23164;BME280;31429;42.674;23.350;2022-07-22T03:59:11;94884.81;;;19.09;100.00
23164;BME280;31429;42.674;23.350;2022-07-22T04:00:12;94887.28;;;19.10;100.00
23164;BME280;31429;42.674;23.350;2022-07-22T04:01:13;94889.25;;;19.19;100.00
23164;BME280;31429;42.674;23.350;2022-07-22T04:02:14;94885.31;;;19.26;100.00
23164;BME280;31429;42.674;23.350;2022-07-22T04:03:14;94891.72;;;19.33;100.00
23164;BME280;31429;42.674;23.350;2022-07-22T04:04:15;94884.91;;;19.32;100.00
23164;BME280;31429;42.674;23.350;2022-07-22T04:05:16;94889.13;;;19.33;100.00
23164;BME280;31429;42.674;23.350;2022-07-22T04:06:17;94894.41;;;19.44;100.00
23164;BME280;31429;42.674;23.350;2022-07-22T04:07:18;94898.47;;;19.48;100.00
23164;BME280;31429;42.674;23.350;2022-07-22T04:08:20;94888.59;;;19.54;100.00
23164;BME280;31429;42.674;23.350;2022-07-22T04:09:20;94892.72;;;19.56;100.00
23164;BME280;31429;42.674;23.350;2022-07-22T04:10:21;94899.03;;;19.65;100.00
23164;BME280;31429;42.674;23.350;2022-07-22T04:11:22;94880.16;;;19.63;100.00
23164;BME280;31429;42.674;23.350;2022-07-22T04:12:23;94898.44;;;19.85;100.00
23164;BME280;31429;42.674;23.350;2022-07-22T04:13:23;94899.63;;;19.81;100.00
23164;BME280;31429;42.674;23.350;2022-07-22T04:14:24;94898.88;;;19.79;100.00
23164;BME280;31429;42.674;23.350;2022-07-22T04:15:25;94889.63;;;19.87;100.00
23164;BME280;31429;42.674;23.350;2022-07-22T04:16:25;94896.47;;;20.12;100.00
23164;BME280;31429;42.674;23.350;2022-07-22T04:17:26;94892.97;;;20.24;100.00
23164;BME280;31429;42.674;23.350;2022-07-22T04:18:27;94879.19;;;20.00;100.00
23164;BME280;31429;42.674;23.350;2022-07-22T04:19:29;94900.84;;;20.12;100.00
23164;BME280;31429;42.674;23.350;2022-07-22T04:20:30;94882.72;;;19.99;100.00
23164;BME280;31429;42.674;23.350;2022-07-22T04:21:31;94898.72;;;20.17;100.00
23164;BME280;31429;42.674;23.350;2022-07-22T04:22:32;94891.25;;;20.25;100.00
23164;BME280;31429;42.674;23.350;2022-07-22T04:23:34;94897.69;;;20.19;100.00
23164;BME280;31429;42.674;23.350;2022-07-22T04:24:35;94901.19;;;20.18;100.00
23164;BME280;31429;42.674;23.350;2022-07-22T04:25:35;94881.88;;;19.98;100.00
23164;BME280;31429;42.674;23.350;2022-07-22T04:26:36;94900.00;;;20.11;100.00
23164;BME280;31429;42.674;23.350;2022-07-22T04:27:37;94896.69;;;20.09;100.00
23164;BME280;31429;42.674;23.350;2022-07-22T04:28:37;94895.56;;;20.24;100.00
23164;BME280;31429;42.674;23.350;2022-07-22T04:29:38;94906.97;;;20.34;100.00
23164;BME280;31429;42.674;23.350;2022-07-22T04:30:39;94879.63;;;20.18;100.00
23164;BME280;31429;42.674;23.350;2022-07-22T04:31:39;94905.56;;;20.41;100.00
23164;BME280;31429;42.674;23.350;2022-07-22T04:32:40;94909.72;;;20.44;100.00
23164;BME280;31429;42.674;23.350;2022-07-22T04:33:41;94902.38;;;20.38;100.00
23164;BME280;31429;42.674;23.350;2022-07-22T04:34:41;94905.81;;;20.38;100.00
23164;BME280;31429;42.674;23.350;2022-07-22T04:35:42;94902.28;;;20.39;100.00
23164;BME280;31429;42.674;23.350;2022-07-22T04:36:43;94905.09;;;20.36;100.00
23164;BME280;31429;42.674;23.350;2022-07-22T04:37:44;94885.13;;;20.26;100.00
23164;BME280;31429;42.674;23.350;2022-07-22T04:38:46;94910.16;;;20.38;100.00
23164;BME280;31429;42.674;23.350;2022-07-22T04:39:47;94916.97;;;20.51;100.00
23164;BME280;31429;42.674;23.350;2022-07-22T04:40:47;94907.50;;;20.50;100.00
23164;BME280;31429;42.674;23.350;2022-07-22T04:41:48;94911.16;;;20.48;100.00
23164;BME280;31429;42.674;23.350;2022-07-22T04:42:49;94898.00;;;20.38;100.00
23164;BME280;31429;42.674;23.350;2022-07-22T04:43:50;94914.41;;;20.39;100.00
23164;BME280;31429;42.674;23.350;2022-07-22T04:44:50;94916.00;;;20.52;100.00
23164;BME280;31429;42.674;23.350;2022-07-22T04:45:51;94899.72;;;20.50;100.00
23164;BME280;31429;42.674;23.350;2022-07-22T04:46:52;94921.00;;;20.67;100.00
23164;BME280;31429;42.674;23.350;2022-07-22T04:47:53;94922.31;;;20.72;100.00
23164;BME280;31429;42.674;23.350;2022-07-22T04:48:53;94920.53;;;20.73;100.00
23164;BME280;31429;42.674;23.350;2022-07-22T04:49:54;94921.84;;;20.78;100.00
23164;BME280;31429;42.674;23.350;2022-07-22T04:50:58;94908.75;;;20.69;100.00
23164;BME280;31429;42.674;23.350;2022-07-22T04:51:59;94923.03;;;20.74;100.00
23164;BME280;31429;42.674;23.350;2022-07-22T04:53:00;94920.53;;;20.73;100.00
23164;BME280;31429;42.674;23.350;2022-07-22T04:54:02;94922.47;;;20.82;100.00
23164;BME280;31429;42.674;23.350;2022-07-22T04:55:03;94933.34;;;20.98;100.00
23164;BME280;31429;42.674;23.350;2022-07-22T04:56:04;94924.03;;;21.06;100.00
23164;BME280;31429;42.674;23.350;2022-07-22T04:57:05;94930.22;;;21.16;100.00
23164;BME280;31429;42.674;23.350;2022-07-22T04:58:06;94897.13;;;21.07;100.00
23164;BME280;31429;42.674;23.350;2022-07-22T04:59:07;94924.81;;;21.31;100.00
23164;BME280;31429;42.674;23.350;2022-07-22T05:00:09;94924.44;;;21.35;100.00
23164;BME280;31429;42.674;23.350;2022-07-22T05:01:09;94930.84;;;21.31;100.00
23164;BME280;31429;42.674;23.350;2022-07-22T05:02:10;94920.19;;;21.34;100.00
23164;BME280;31429;42.674;23.350;2022-07-22T05:03:11;94909.31;;;21.29;100.00
23164;BME280;31429;42.674;23.350;2022-07-22T05:04:12;94914.72;;;21.37;100.00
23164;BME280;31429;42.674;23.350;2022-07-22T05:05:12;94923.72;;;21.55;100.00
23164;BME280;31429;42.674;23.350;2022-07-22T05:06:13;94905.66;;;21.54;100.00
23164;BME280;31429;42.674;23.350;2022-07-22T05:07:14;94926.44;;;21.65;100.00
23164;BME280;31429;42.674;23.350;2022-07-22T05:08:15;94921.25;;;21.54;100.00
23164;BME280;31429;42.674;23.350;2022-07-22T05:09:17;94924.78;;;21.64;100.00
23164;BME280;31429;42.674;23.350;2022-07-22T05:10:17;94923.09;;;21.74;100.00
23164;BME280;31429;42.674;23.350;2022-07-22T05:11:18;94895.47;;;21.62;100.00
23164;BME280;31429;42.674;23.350;2022-07-22T05:12:19;94920.84;;;21.81;100.00
23164;BME280;31429;42.674;23.350;2022-07-22T05:13:20;94930.78;;;21.87;100.00
23164;BME280;31429;42.674;23.350;2022-07-22T05:14:20;94927.84;;;22.02;100.00
23164;BME280;31429;42.674;23.350;2022-07-22T05:15:21;94930.31;;;22.04;100.00
23164;BME280;31429;42.674;23.350;2022-07-22T05:16:22;94905.13;;;21.93;100.00
23164;BME280;31429;42.674;23.350;2022-07-22T05:17:23;94885.97;;;21.72;100.00